createdAt,value
2019-04-26T00:02:06.179Z,5.63
2019-04-26T00:08:12.097Z,2.60
2019-04-26T00:14:20.842Z,1.50
2019-04-26T00:20:25.629Z,2.80
2019-04-26T00:26:30.315Z,1.90
2019-04-26T00:32:34.955Z,3.67
2019-04-26T00:38:39.589Z,2.63
2019-04-26T00:44:45.076Z,3.77
2019-04-26T00:51:23.455Z,3.00
2019-04-26T00:57:30.523Z,2.53
2019-04-26T01:03:35.376Z,3.73
2019-04-26T01:09:39.991Z,2.50
2019-04-26T01:15:44.552Z,3.17
2019-04-26T01:21:53.425Z,3.53
2019-04-26T01:27:58.382Z,2.33
2019-04-26T01:34:02.994Z,1.90
2019-04-26T01:40:10.612Z,2.17
2019-04-26T01:46:19.361Z,3.00
2019-04-26T01:52:25.603Z,4.03
2019-04-26T01:58:31.342Z,5.63
2019-04-26T02:04:40.767Z,3.23
2019-04-26T02:10:45.471Z,3.57
2019-04-26T02:16:50.264Z,1.70
2019-04-26T02:22:59.312Z,1.97
2019-04-26T02:29:11.669Z,3.30
2019-04-26T02:35:16.296Z,3.53
2019-04-26T02:41:20.907Z,2.60
2019-04-26T02:47:55.180Z,4.37
2019-04-26T02:54:10.514Z,2.67
2019-04-26T03:00:19.054Z,2.07
2019-04-26T03:06:24.335Z,1.80
2019-04-26T03:12:34.421Z,2.93
2019-04-26T03:18:51.905Z,2.33
2019-04-26T03:25:10.099Z,2.70
2019-04-26T03:31:22.434Z,2.40
2019-04-26T03:38:09.102Z,2.90
2019-04-26T03:44:26.976Z,3.17
2019-04-26T03:50:42.882Z,3.60
2019-04-26T03:57:15.036Z,2.80
2019-04-26T04:03:41.626Z,3.53
2019-04-26T04:09:49.315Z,3.90
2019-04-26T04:15:54.574Z,5.10
2019-04-26T04:22:21.157Z,3.03
2019-04-26T04:29:20.253Z,2.30
2019-04-26T04:35:27.854Z,3.50
2019-04-26T04:42:04.339Z,2.97
2019-04-26T04:48:26.072Z,4.70
2019-04-26T04:55:06.412Z,2.90
2019-04-26T05:01:11.820Z,3.60
2019-04-26T05:07:35.925Z,4.70
2019-04-26T05:13:50.352Z,3.93
2019-04-26T05:20:11.817Z,4.63
2019-04-26T05:26:40.740Z,4.20
2019-04-26T05:33:07.758Z,5.33
2019-04-26T05:39:28.963Z,6.10
2019-04-26T05:46:26.665Z,3.83
2019-04-26T05:53:15.389Z,5.47
2019-04-26T05:59:42.584Z,5.23
2019-04-26T06:06:13.968Z,5.67
2019-04-26T06:12:47.125Z,8.93
2019-04-26T06:19:21.278Z,3.83
2019-04-26T06:25:49.518Z,3.87
2019-04-26T06:32:07.734Z,5.10
2019-04-26T06:38:43.482Z,9.00
2019-04-26T06:45:30.960Z,10.53
2019-04-26T06:51:51.823Z,11.27
2019-04-26T06:58:20.581Z,15.57
2019-04-26T07:04:47.746Z,14.13
2019-04-26T07:11:07.510Z,11.97
2019-04-26T07:17:41.011Z,10.47
2019-04-26T07:24:15.308Z,13.70
2019-04-26T07:30:42.137Z,10.80
2019-04-26T07:37:22.714Z,13.60
2019-04-26T07:43:56.322Z,11.23
2019-04-26T07:50:25.246Z,12.63
2019-04-26T07:56:55.622Z,13.00
2019-04-26T08:03:26.300Z,16.80
2019-04-26T08:09:33.977Z,12.60
2019-04-26T08:15:52.123Z,14.40
2019-04-26T08:22:11.606Z,19.30
2019-04-26T08:28:09.972Z,11.97
2019-04-26T08:34:21.131Z,13.90
2019-04-26T08:40:30.997Z,16.03
2019-04-26T08:46:38.883Z,16.10
2019-04-26T08:52:46.275Z,15.20
2019-04-26T08:58:55.713Z,13.83
2019-04-26T09:05:08.951Z,15.00
2019-04-26T09:11:25.543Z,17.30
2019-04-26T09:17:21.804Z,11.47
2019-04-26T09:23:40.230Z,11.57
2019-04-26T09:29:47.451Z,13.37
2019-04-26T09:35:52.158Z,13.50
2019-04-26T09:42:14.602Z,14.13
2019-04-26T09:48:26.666Z,15.00
2019-04-26T09:54:31.291Z,14.87
2019-04-26T10:00:35.990Z,16.60
2019-04-26T10:06:40.714Z,13.70
2019-04-26T10:12:49.980Z,13.90
2019-04-26T10:18:58.259Z,13.77
2019-04-26T10:25:07.755Z,17.57
2019-04-26T10:31:08.978Z,14.30
2019-04-26T10:37:13.555Z,11.60
2019-04-26T10:43:18.258Z,11.90
2019-04-26T10:49:43.697Z,12.40
2019-04-26T10:55:56.052Z,11.00
2019-04-26T11:02:00.670Z,10.73
2019-04-26T11:08:06.076Z,12.43
2019-04-26T11:14:10.719Z,10.00
2019-04-26T11:20:15.473Z,10.37
2019-04-26T11:26:20.023Z,8.83
2019-04-26T11:32:24.649Z,8.30
2019-04-26T11:38:31.226Z,7.30
2019-04-26T11:44:35.462Z,6.53
2019-04-26T11:50:40.011Z,6.73
2019-04-26T11:56:44.570Z,12.30
2019-04-26T12:02:50.802Z,7.27
2019-04-26T12:08:57.197Z,9.80
2019-04-26T12:15:03.967Z,4.13
2019-04-26T12:21:08.153Z,5.37
2019-04-26T12:27:12.771Z,6.17
2019-04-26T12:33:17.487Z,8.20
2019-04-26T12:39:22.654Z,8.10
2019-04-26T12:45:28.860Z,9.97
2019-04-26T12:51:35.131Z,14.13
2019-04-26T12:57:40.877Z,7.70
2019-04-26T13:03:47.663Z,8.00
2019-04-26T13:10:10.249Z,6.57
2019-04-26T13:16:26.368Z,8.47
2019-04-26T13:22:28.433Z,7.70
2019-04-26T13:28:33.023Z,5.20
2019-04-26T13:34:38.367Z,5.50
2019-04-26T13:40:43.074Z,5.70
2019-04-26T13:47:03.739Z,6.57
2019-04-26T13:53:07.845Z,4.07
2019-04-26T13:59:12.640Z,6.77
2019-04-26T14:05:17.190Z,6.23
2019-04-26T14:11:28.091Z,7.63
2019-04-26T14:17:29.735Z,4.17
2019-04-26T14:23:49.468Z,5.33
2019-04-26T14:29:54.488Z,6.70
2019-04-26T14:35:59.104Z,12.23
2019-04-26T14:42:03.850Z,8.43
2019-04-26T14:48:25.206Z,8.03
2019-04-26T14:54:14.714Z,8.30
2019-04-26T15:00:22.276Z,8.00
2019-04-26T15:06:28.658Z,8.10
2019-04-26T15:12:45.710Z,12.50
2019-04-26T15:18:39.594Z,7.67
2019-04-26T15:24:44.151Z,8.90
2019-04-26T15:30:48.709Z,12.23
2019-04-26T15:36:54.262Z,13.27
2019-04-26T15:43:14.254Z,9.40
2019-04-26T15:49:12.596Z,18.33
2019-04-26T15:55:17.302Z,23.87
2019-04-26T16:01:21.841Z,8.60
2019-04-26T16:07:28.865Z,8.50
2019-04-26T16:13:32.748Z,8.27
2019-04-26T16:19:37.307Z,8.07
2019-04-26T16:25:42.831Z,8.60
2019-04-26T16:31:49.143Z,10.93
2019-04-26T16:37:53.922Z,11.80
2019-04-26T16:43:58.479Z,10.83
2019-04-26T16:50:03.717Z,15.40
2019-04-26T16:56:08.476Z,12.77
2019-04-26T17:02:20.940Z,11.37
2019-04-26T17:08:19.477Z,13.57
2019-04-26T17:14:24.599Z,12.17
2019-04-26T17:20:29.337Z,10.60
2019-04-26T17:26:36.511Z,15.73
2019-04-26T17:32:42.188Z,15.20
2019-04-26T17:38:47.791Z,17.97
2019-04-26T17:44:52.352Z,13.63
2019-04-26T17:50:56.969Z,14.43
2019-04-26T17:57:04.395Z,16.23
2019-04-26T18:03:13.229Z,12.63
2019-04-26T18:09:38.050Z,15.13
2019-04-26T18:15:21.013Z,14.50
2019-04-26T18:21:39.367Z,14.90
2019-04-26T18:27:43.919Z,21.37
2019-04-26T18:33:48.549Z,18.70
2019-04-26T18:39:53.500Z,20.10
2019-04-26T18:46:03.388Z,19.40
2019-04-26T18:52:08.789Z,16.40
2019-04-26T18:58:13.522Z,18.23
2019-04-26T19:04:18.389Z,19.67
2019-04-26T19:10:25.694Z,14.20
2019-04-26T19:16:35.768Z,17.13
2019-04-26T19:22:41.969Z,20.70
2019-04-26T19:28:46.525Z,17.67
2019-04-26T19:34:52.462Z,16.57
2019-04-26T19:40:57.117Z,17.97
2019-04-26T19:47:15.424Z,17.53
2019-04-26T19:53:24.943Z,14.83
2019-04-26T19:59:33.253Z,16.57
2019-04-26T20:05:36.361Z,14.40
2019-04-26T20:11:42.354Z,18.63
2019-04-26T20:17:52.391Z,16.93
2019-04-26T20:23:54.528Z,20.97
2019-04-26T20:29:59.397Z,21.93
2019-04-26T20:36:04.897Z,15.77
2019-04-26T20:42:09.594Z,16.83
2019-04-26T20:48:14.210Z,19.73
2019-04-26T20:54:18.779Z,17.10
2019-04-26T21:00:24.347Z,17.40
2019-04-26T21:06:33.008Z,20.37
2019-04-26T21:12:35.274Z,21.50
2019-04-26T21:18:41.913Z,17.60
2019-04-26T21:24:50.731Z,23.17
2019-04-26T21:31:09.165Z,19.60
2019-04-26T21:37:20.510Z,22.13
2019-04-26T21:43:23.171Z,22.70
2019-04-26T21:49:28.670Z,23.60
2019-04-26T21:55:38.364Z,23.87
2019-04-26T22:01:39.511Z,23.00
2019-04-26T22:07:47.658Z,27.70
2019-04-26T22:14:07.040Z,24.30
2019-04-26T22:20:15.621Z,26.40
2019-04-26T22:26:17.970Z,29.53
2019-04-26T22:32:22.966Z,33.60
2019-04-26T22:38:27.708Z,28.30
2019-04-26T22:44:43.679Z,32.40
2019-04-26T22:50:53.694Z,31.73
2019-04-26T22:56:54.743Z,31.73
2019-04-26T23:03:03.678Z,23.77
2019-04-26T23:09:11.491Z,29.67
2019-04-26T23:15:16.683Z,20.73
2019-04-26T23:21:24.896Z,27.70
2019-04-26T23:27:29.567Z,23.13
2019-04-26T23:33:34.117Z,25.47
2019-04-26T23:39:38.722Z,24.50
2019-04-26T23:45:48.290Z,26.47
2019-04-26T23:51:53.219Z,28.87
2019-04-26T23:57:57.641Z,25.17
